SBPP/PMG METAR and TAF weather

Enter ICAO airport designator
Station Type Date Time Source
SBPP METAR 2020/09/26 21:00 UTC NOAA

SBPP 262100Z 33004KT CAVOK 35/11 Q1008


Station Type Date Time Source
SBPP Decoded METAR 2020/09/26 21:00 UTC NOAA

Ponta Pora Intl , Brazil (SBPP) 22-33S 055-42W
Sep 26, 2020 - 05:00 PM EDT / 2020.09.26 2100 UTC
Wind: from the NNW (330 degrees) at 5 MPH (4 KT):0
Visibility: greater than 7 mile(s):0
Temperature: 95 F (35 C)
Dew Point: 51 F (11 C)
Relative Humidity: 23%
Pressure (altimeter): 29.77 in. Hg (1008 hPa)
ob: SBPP 262100Z 33004KT CAVOK 35/11 Q1008
cycle: 21

Station Type Date Time Source
SBPP TAF 2020/09/27 06:31 UTC NOAA

TAF SBPP 270100Z 2706/2806 02010KT CAVOK TN24/2709Z TX37/2718Z
BECMG 2714/2716 30010KT SCT020
TEMPO 2716/2721 30015G25KT 4000 TSRA BKN020 FEW040CB
BECMG 2721/2723 33005KT CAVOK
RMK PGF

Example: see airport list